Mahaffey, Pennsylvania
Current Conditions -  °F | °C
As of 11:54 PM on Friday 19 Dec 2014 (Local Time) from KFIG Reporting Station
Overcast Overcast  
Wind Chill: -8°   Ceiling: 2000
Heat Index: -4°   Visibility: 10mi
Dew Point: -8°   Wind: 7mph
Humidity: 75%   Direction: 330°NNW
Pressure: 30.2"   Gusts: NA
Location:  40.87°N, 78.72°W
Report Text: KFIG 200454Z AUTO 33006KT 10SM OVC020 M04/M08 A3020 RMK AO2 SLP247 T10391078 410061044
Loading
Personal Weather Stations






























Interactive Weather Map New forecast layout! Learn more

10-Day Weather Forecast

Advertisements
Track Severe Weather on mobile